Bangor (BGR/KBGR)

Map

Destinations

Information

Location
Bangor, Maine
Local Time
20:16 / 8:16 pm
GMT Time
00:16 / 12:16 am
Gates
Unassigned
No FAA reported delays
METAR KBGR 252353Z 13005KT 10SM OVC085 09/00 A3032 RMK AO2 RAE48 SLP268 P0000 60001 T00890000 10128 20089 58011
TAF KBGR 252337Z 2600/2624 13010KT P6SM -RA SCT025 OVC035 TEMPO 2600/2601 6SM -RA OVC025 FM260100 13010KT 6SM -RA OVC025 FM260300 13010KT 3SM -RA BR OVC008 FM260500 12010KT 2SM -RA BR OVC004 FM261800 12010KT 4SM -RA BR OVC005